Time;durP1;ratioP1;P1;durP2;ratioP2;P2;SDS_P1;SDS_P2;PMS_P1;PMS_P2;Temp;Humidity;BMP_temperature;BMP_pressure;BME280_temperature;BME280_humidity;BME280_pressure;Samples;Min_cycle;Max_cycle;Signal;HPM_P1;HPM_P2
2021/05/23 00:00:29;;;;;;;9.50;3.58;;;15.30;60.10;;;;;;5073811;28;20449;-77
2021/05/23 00:03:06;;;;;;;6.72;3.28;;;15.30;60.30;;;;;;5073894;28;20115;-77
2021/05/23 00:05:33;;;;;;;7.47;3.00;;;15.30;60.50;;;;;;5073989;28;20127;-74
2021/05/23 00:10:58;;;;;;;5.72;2.97;;;15.30;60.50;;;;;;5075509;28;20102;-75
2021/05/23 00:13:29;;;;;;;11.55;4.10;;;15.30;60.50;;;;;;5090751;28;20036;-74
2021/05/23 00:16:17;;;;;;;7.13;3.33;;;15.30;60.40;;;;;;5073863;28;20093;-74
2021/05/23 00:18:48;;;;;;;11.18;4.75;;;15.20;60.50;;;;;;5075014;28;20029;-78
2021/05/23 00:21:18;;;;;;;10.30;4.40;;;15.20;60.70;;;;;;5074142;28;20064;-78
2021/05/23 00:23:44;;;;;;;9.18;4.00;;;15.20;60.90;;;;;;5073601;28;20031;-78
2021/05/23 00:26:11;;;;;;;;;;;15.20;61.70;;;;;;5074211;28;20100;-78
2021/05/23 00:28:37;;;;;;;10.23;3.67;;;15.20;59.80;;;;;;5075156;28;19912;-77
2021/05/23 00:31:04;;;;;;;;;;;15.20;60.50;;;;;;5074031;28;20150;-78
2021/05/23 00:33:31;;;;;;;6.43;3.03;;;15.20;59.80;;;;;;5073657;28;20399;-74
2021/05/23 00:35:58;;;;;;;7.65;2.95;;;15.20;60.20;;;;;;5090262;28;20053;-78
2021/05/23 00:38:24;;;;;;;6.88;2.92;;;15.20;60.30;;;;;;5073398;28;20036;-74
2021/05/23 00:40:51;;;;;;;12.88;3.42;;;15.10;60.10;;;;;;5090359;28;20068;-74
2021/05/23 00:43:19;;;;;;;8.30;3.38;;;15.10;60.50;;;;;;5074618;28;20035;-74
2021/05/23 00:45:48;;;;;;;11.88;5.72;;;15.00;61.10;;;;;;5072545;28;20041;-78
2021/05/23 00:48:35;;;;;;;12.95;4.85;;;14.90;61.30;;;;;;5089949;28;20396;-78
2021/05/23 00:51:01;;;;;;;12.98;4.80;;;14.90;61.40;;;;;;5074676;28;20048;-73
2021/05/23 00:53:28;;;;;;;8.25;3.85;;;14.80;61.40;;;;;;5056566;28;20107;-74
2021/05/23 00:55:54;;;;;;;9.02;3.63;;;14.80;61.70;;;;;;5073004;28;20086;-74
2021/05/23 00:58:20;;;;;;;10.23;3.38;;;14.70;62.00;;;;;;5072941;28;20438;-78
2021/05/23 01:01:42;;;;;;;7.88;3.67;;;14.70;62.20;;;;;;5072717;28;20079;-74
2021/05/23 01:04:09;;;;;;;6.78;3.03;;;14.70;61.90;;;;;;5074065;28;20488;-74
2021/05/23 01:06:35;;;;;;;8.38;3.30;;;14.60;61.90;;;;;;5089694;28;20044;-74
2021/05/23 01:09:06;;;;;;;7.20;2.97;;;14.50;61.80;;;;;;5072656;28;20082;-78
2021/05/23 01:11:32;;;;;;;6.45;2.78;;;14.50;62.60;;;;;;5073147;28;20036;-77
2021/05/23 01:13:59;;;;;;;8.35;3.13;;;14.50;62.80;;;;;;5073922;28;20032;-74
2021/05/23 01:17:01;;;;;;;;;;;14.50;62.80;;;;;;5074756;28;20025;-78
2021/05/23 01:19:40;;;;;;;5.88;2.78;;;14.40;61.90;;;;;;5073667;28;20296;-76
2021/05/23 01:23:02;;;;;;;6.68;2.50;;;14.40;62.80;;;;;;5072518;28;20036;-77
2021/05/23 01:25:30;;;;;;;6.97;3.00;;;14.40;62.60;;;;;;5073440;28;20591;-74
2021/05/23 01:27:57;;;;;;;6.35;2.70;;;14.30;62.80;;;;;;5089165;28;20488;-77
2021/05/23 01:30:44;;;;;;;7.07;2.63;;;14.30;63.00;;;;;;5072443;28;20420;-77
2021/05/23 01:33:32;;;;;;;8.23;2.65;;;14.30;63.40;;;;;;5073470;28;20033;-78
2021/05/23 01:35:59;;;;;;;6.70;2.72;;;14.30;63.40;;;;;;5089236;28;20028;-74
2021/05/23 01:38:28;;;;;;;7.53;2.95;;;14.30;63.60;;;;;;5072177;28;20397;-74
2021/05/23 01:41:19;;;;;;;9.57;3.50;;;14.40;63.80;;;;;;5072116;28;20036;-77
2021/05/23 01:43:45;;;;;;;5.82;2.80;;;14.30;63.90;;;;;;5073260;28;20060;-77
2021/05/23 01:46:11;;;;;;;;;;;14.30;64.10;;;;;;5055803;28;20046;-74
2021/05/23 01:48:39;;;;;;;8.13;3.28;;;14.20;63.50;;;;;;5055463;28;19916;-74
2021/05/23 01:51:08;;;;;;;11.02;3.80;;;14.20;64.00;;;;;;5073605;28;20035;-74
2021/05/23 01:53:35;;;;;;;8.07;3.15;;;14.20;64.10;;;;;;5071845;28;20029;-77
2021/05/23 01:56:03;;;;;;;11.13;4.13;;;14.20;64.20;;;;;;5071254;28;20037;-77
2021/05/23 01:58:29;;;;;;;9.25;3.80;;;14.20;64.20;;;;;;5088356;28;20039;-74
2021/05/23 02:00:55;;;;;;;10.20;3.65;;;14.30;64.40;;;;;;5054793;28;20056;-74
2021/05/23 02:03:24;;;;;;;11.15;3.30;;;14.30;64.60;;;;;;5073098;28;20112;-74
2021/05/23 02:05:54;;;;;;;8.70;3.10;;;14.20;64.50;;;;;;5071686;28;20131;-76
2021/05/23 02:08:24;;;;;;;11.88;3.75;;;14.30;64.70;;;;;;5088756;28;20025;-78
2021/05/23 02:10:53;;;;;;;7.97;3.58;;;14.20;64.60;;;;;;5071835;28;20105;-78
2021/05/23 02:13:20;;;;;;;8.80;3.20;;;14.20;64.70;;;;;;5071783;28;20032;-74
2021/05/23 02:15:46;;;;;;;9.80;3.05;;;14.20;65.00;;;;;;5071706;28;20041;-75
2021/05/23 02:18:13;;;;;;;7.05;2.70;;;14.20;64.50;;;;;;5088442;28;20555;-77
2021/05/23 02:20:40;;;;;;;7.55;2.88;;;14.10;65.40;;;;;;5073093;28;20079;-74
2021/05/23 02:23:31;;;;;;;7.90;2.90;;;14.00;65.40;;;;;;5088364;28;20032;-74
2021/05/23 02:25:57;;;;;;;9.45;3.00;;;14.00;65.60;;;;;;5071834;28;20062;-77
2021/05/23 02:28:23;;;;;;;6.22;2.13;;;13.90;65.80;;;;;;5088449;28;20033;-74
2021/05/23 02:31:11;;;;;;;;;;;13.80;66.10;;;;;;5072095;28;20546;-74
2021/05/23 02:33:37;;;;;;;5.60;1.80;;;13.80;65.30;;;;;;5072880;28;19956;-78
2021/05/23 02:36:04;;;;;;;7.30;2.65;;;13.80;66.00;;;;;;5072881;28;20500;-74
2021/05/23 02:38:30;;;;;;;6.40;2.42;;;13.60;66.10;;;;;;5071520;28;20032;-74
2021/05/23 02:40:56;;;;;;;;;;;13.70;66.40;;;;;;5072032;28;20090;-77
2021/05/23 02:43:24;;;;;;;4.72;2.00;;;13.60;65.70;;;;;;5071447;28;19952;-74
2021/05/23 02:45:51;;;;;;;6.25;2.30;;;13.60;66.10;;;;;;5071142;28;20397;-77
2021/05/23 02:48:18;;;;;;;7.60;2.25;;;13.60;66.50;;;;;;5071501;28;20036;-77
2021/05/23 02:50:48;;;;;;;4.78;2.25;;;13.50;66.40;;;;;;5088230;28;20484;-74
2021/05/23 02:53:15;;;;;;;5.00;2.00;;;13.50;66.60;;;;;;5088079;28;20032;-77
2021/05/23 02:55:45;;;;;;;6.15;2.15;;;13.50;66.30;;;;;;5071446;28;20558;-78
2021/05/23 02:58:12;;;;;;;7.43;2.45;;;13.50;66.80;;;;;;5071196;28;20033;-74
2021/05/23 03:01:00;;;;;;;6.07;2.25;;;13.50;67.10;;;;;;5071010;28;20057;-74
2021/05/23 03:03:26;;;;;;;4.93;2.20;;;13.40;67.10;;;;;;5072418;28;20028;-74
2021/05/23 03:05:52;;;;;;;5.15;1.90;;;13.40;67.10;;;;;;5071045;28;20048;-78
2021/05/23 03:08:18;;;;;;;4.53;1.88;;;13.30;67.20;;;;;;5072706;28;20427;-77
2021/05/23 03:10:49;;;;;;;;;;;13.20;66.80;;;;;;5075886;28;20499;-77
2021/05/23 03:13:15;;;;;;;6.38;2.40;;;13.20;66.70;;;;;;5076277;28;19912;-78
2021/05/23 03:15:42;;;;;;;5.78;2.10;;;13.20;66.70;;;;;;5076474;28;20048;-74
2021/05/23 03:18:09;;;;;;;7.30;1.98;;;13.20;67.60;;;;;;5074960;28;20039;-73
2021/05/23 03:20:39;;;;;;;4.40;1.80;;;13.10;67.60;;;;;;5074929;28;20071;-75
2021/05/23 03:23:06;;;;;;;4.68;1.98;;;13.00;67.60;;;;;;5074851;28;20035;-78
2021/05/23 03:25:34;;;;;;;4.32;1.67;;;13.00;67.70;;;;;;5091519;28;20032;-78
2021/05/23 03:28:01;;;;;;;6.15;1.90;;;12.90;67.80;;;;;;5074707;28;20063;-74
2021/05/23 03:30:47;;;;;;;5.22;2.03;;;12.90;67.40;;;;;;5091654;28;20370;-78
2021/05/23 03:33:14;;;;;;;7.10;1.73;;;12.90;67.50;;;;;;5074755;28;20037;-78
2021/05/23 03:35:41;;;;;;;5.05;1.95;;;12.90;67.80;;;;;;5091585;28;20120;-74
2021/05/23 03:38:09;;;;;;;5.25;1.63;;;12.90;68.10;;;;;;5091348;28;20301;-78
2021/05/23 03:40:37;;;;;;;6.43;2.00;;;12.90;68.10;;;;;;5074497;28;20429;-74
2021/05/23 03:43:05;;;;;;;8.93;2.03;;;12.90;67.70;;;;;;5091142;28;20035;-74
2021/05/23 03:45:31;;;;;;;9.75;2.35;;;12.90;68.10;;;;;;5074219;28;20049;-74
2021/05/23 03:47:58;;;;;;;6.03;2.70;;;12.90;68.30;;;;;;5057591;28;20033;-74
2021/05/23 03:50:25;;;;;;;5.32;2.20;;;12.90;68.40;;;;;;5074258;28;20036;-78
2021/05/23 03:52:56;;;;;;;7.18;1.98;;;12.80;68.20;;;;;;5091248;28;20029;-77
2021/05/23 03:55:24;;;;;;;6.35;2.22;;;12.90;68.50;;;;;;5091216;28;20119;-78
2021/05/23 03:57:50;;;;;;;6.10;2.10;;;12.80;68.10;;;;;;5091017;28;20028;-74
2021/05/23 04:00:19;;;;;;;11.18;2.00;;;12.90;67.80;;;;;;5073805;28;20084;-78
2021/05/23 04:02:49;;;;;;;5.43;2.00;;;12.90;68.30;;;;;;5075384;28;20020;-74
2021/05/23 04:05:16;;;;;;;6.45;1.77;;;12.90;68.40;;;;;;5074615;28;20040;-78
2021/05/23 04:07:42;;;;;;;7.25;2.15;;;12.90;68.20;;;;;;5073912;28;20119;-74
2021/05/23 04:10:10;;;;;;;4.50;1.90;;;13.00;68.20;;;;;;5073957;28;20047;-78
2021/05/23 04:15:23;;;;;;;6.85;2.33;;;13.00;68.10;;;;;;5088407;28;20055;-74
2021/05/23 04:17:49;;;;;;;4.60;1.77;;;13.10;68.20;;;;;;5073839;28;20049;-77
2021/05/23 04:20:19;;;;;;;10.02;2.42;;;13.00;67.90;;;;;;5089463;28;20033;-73
2021/05/23 04:22:47;;;;;;;6.43;2.05;;;13.00;68.50;;;;;;5090498;28;20074;-74
2021/05/23 04:25:16;;;;;;;9.70;2.20;;;13.00;68.30;;;;;;5073635;28;20127;-74
2021/05/23 04:27:46;;;;;;;4.88;1.83;;;13.00;68.30;;;;;;5090501;28;20020;-74
2021/05/23 04:30:16;;;;;;;5.03;2.13;;;13.00;68.50;;;;;;5073634;28;20094;-74
2021/05/23 04:32:42;;;;;;;5.40;2.10;;;13.10;68.50;;;;;;5074735;28;20043;-78
2021/05/23 04:35:11;;;;;;;8.73;2.03;;;13.10;68.50;;;;;;5073602;28;20102;-77
2021/05/23 04:37:38;;;;;;;11.25;2.85;;;13.10;68.70;;;;;;5090393;28;20480;-74
2021/05/23 04:40:07;;;;;;;19.85;4.88;;;13.10;68.60;;;;;;5073211;28;20036;-74
2021/05/23 04:42:33;;;;;;;17.40;5.35;;;13.10;68.60;;;;;;5090208;28;20028;-78
2021/05/23 04:44:59;;;;;;;14.07;3.20;;;13.20;68.00;;;;;;5073220;28;20485;-74
2021/05/23 04:47:27;;;;;;;;;;;13.30;68.70;;;;;;5073725;28;20029;-74
2021/05/23 04:49:53;;;;;;;7.95;3.03;;;13.30;68.10;;;;;;5073154;28;19951;-78
2021/05/23 04:52:19;;;;;;;;;;;13.30;67.70;;;;;;5073947;28;20035;-74
2021/05/23 04:54:45;;;;;;;9.10;3.10;;;13.40;67.80;;;;;;5073057;28;19963;-76
2021/05/23 04:57:12;;;;;;;7.13;2.55;;;13.40;68.40;;;;;;5073000;28;20033;-77
2021/05/23 04:59:38;;;;;;;5.28;2.40;;;13.50;68.70;;;;;;5074110;28;20238;-77
2021/05/23 05:02:04;;;;;;;5.70;2.75;;;13.50;68.30;;;;;;5073053;28;20027;-77
2021/05/23 05:04:30;;;;;;;9.68;2.97;;;13.60;68.90;;;;;;5072947;28;20037;-74
2021/05/23 05:06:56;;;;;;;;;;;13.70;69.00;;;;;;5074630;28;20043;-74
2021/05/23 05:09:23;;;;;;;7.85;2.42;;;13.80;68.20;;;;;;5072704;28;19912;-78
2021/05/23 05:11:49;;;;;;;8.68;2.65;;;13.80;68.40;;;;;;5072754;28;20493;-74
2021/05/23 05:14:15;;;;;;;7.00;2.63;;;13.90;68.80;;;;;;5072709;28;20044;-77
2021/05/23 05:16:42;;;;;;;5.75;2.30;;;14.00;68.70;;;;;;5074354;28;20051;-77
2021/05/23 05:19:09;;;;;;;8.45;2.80;;;14.10;68.00;;;;;;5089536;28;20503;-78
2021/05/23 05:21:36;;;;;;;10.18;2.47;;;14.10;67.80;;;;;;5056159;28;20032;-73
2021/05/23 05:24:03;;;;;;;8.95;3.30;;;14.30;67.80;;;;;;5089373;28;20115;-77
2021/05/23 05:26:29;;;;;;;9.40;3.95;;;14.40;68.10;;;;;;5074009;28;20036;-74
2021/05/23 05:28:55;;;;;;;;;;;14.50;67.30;;;;;;5072895;28;20032;-77
2021/05/23 05:31:21;;;;;;;17.55;6.53;;;14.80;67.30;;;;;;5072068;28;20322;-74
2021/05/23 05:33:47;;;;;;;;;;;14.90;67.40;;;;;;5074017;28;20111;-74
2021/05/23 05:36:14;;;;;;;10.90;3.75;;;15.00;66.70;;;;;;5072454;28;20392;-78
2021/05/23 05:38:40;;;;;;;9.63;3.72;;;15.10;66.60;;;;;;5073506;28;20155;-77
2021/05/23 05:41:06;;;;;;;11.00;3.00;;;15.30;66.70;;;;;;5055818;28;20047;-74
2021/05/23 05:43:32;;;;;;;13.45;4.28;;;15.30;66.00;;;;;;5073457;28;20029;-77
2021/05/23 05:45:59;;;;;;;11.15;4.22;;;15.50;65.80;;;;;;5073643;28;20095;-73
2021/05/23 05:48:25;;;;;;;11.23;4.25;;;15.60;65.20;;;;;;5072162;28;20025;-78
2021/05/23 05:50:51;;;;;;;7.93;3.65;;;15.70;64.90;;;;;;5072074;28;20396;-78
2021/05/23 05:53:17;;;;;;;;;;;15.80;64.30;;;;;;5074137;28;20392;-73
2021/05/23 05:55:43;;;;;;;9.95;3.10;;;15.90;64.10;;;;;;5071811;28;19921;-74
2021/05/23 05:58:09;;;;;;;9.07;2.92;;;16.10;63.20;;;;;;5073180;28;20036;-77
2021/05/23 06:00:35;;;;;;;;;;;16.30;62.00;;;;;;5073633;28;20053;-77
2021/05/23 06:03:02;;;;;;;6.15;1.95;;;16.40;62.50;;;;;;5071933;28;20323;-78
2021/05/23 06:05:29;;;;;;;8.95;2.35;;;16.60;60.80;;;;;;5071648;28;20044;-78
2021/05/23 06:07:56;;;;;;;7.40;2.20;;;16.80;60.30;;;;;;5088915;28;20051;-74
2021/05/23 06:10:23;;;;;;;6.47;2.55;;;17.00;58.60;;;;;;5055211;28;20041;-74
2021/05/23 06:12:49;;;;;;;8.90;3.28;;;17.20;57.70;;;;;;5071955;28;20059;-73
2021/05/23 06:15:16;;;;;;;9.43;2.95;;;17.50;57.90;;;;;;5073108;28;20044;-77
2021/05/23 06:17:42;;;;;;;5.95;2.63;;;17.60;56.30;;;;;;5071855;28;20032;-74
2021/05/23 06:20:09;;;;;;;15.32;3.00;;;17.70;55.60;;;;;;5071706;28;20028;-78
2021/05/23 06:22:36;;;;;;;8.45;2.83;;;17.80;56.30;;;;;;5072161;28;20024;-78
2021/05/23 06:25:03;;;;;;;13.30;5.90;;;18.00;55.80;;;;;;5071472;28;20481;-73
2021/05/23 06:27:29;;;;;;;10.82;4.88;;;18.10;55.30;;;;;;5071574;28;20044;-73
2021/05/23 06:29:55;;;;;;;;;;;18.40;55.10;;;;;;5071984;28;20044;-78
2021/05/23 06:32:21;;;;;;;8.80;2.72;;;18.60;55.50;;;;;;5054840;28;20384;-73
2021/05/23 06:34:47;;;;;;;18.65;6.45;;;18.60;53.70;;;;;;5072712;28;20038;-74
2021/05/23 06:37:14;;;;;;;13.85;6.22;;;18.70;54.00;;;;;;5071551;28;20443;-74
2021/05/23 06:39:39;;;;;;;;;;;18.80;53.30;;;;;;5072020;28;20071;-77
2021/05/23 06:42:06;;;;;;;12.90;2.72;;;19.00;54.00;;;;;;5072753;28;19916;-75
2021/05/23 06:44:32;;;;;;;7.20;2.10;;;19.10;52.80;;;;;;5076431;28;20029;-74
2021/05/23 06:46:59;;;;;;;5.55;2.20;;;19.20;52.00;;;;;;5075571;28;20067;-77
2021/05/23 06:49:25;;;;;;;;;;;19.30;51.50;;;;;;5076079;28;20043;-78
2021/05/23 06:51:51;;;;;;;5.05;1.98;;;19.50;52.50;;;;;;5075589;28;19916;-78
2021/05/23 06:54:17;;;;;;;;;;;19.60;51.40;;;;;;5077247;28;20037;-74
2021/05/23 06:56:43;;;;;;;5.75;2.17;;;19.70;51.90;;;;;;5077154;28;20301;-77
2021/05/23 06:59:09;;;;;;;;;;;19.80;49.70;;;;;;5075914;28;20033;-78
2021/05/23 07:01:35;;;;;;;4.30;2.00;;;19.90;50.40;;;;;;5075249;28;19921;-74
2021/05/23 07:04:01;;;;;;;;;;;20.10;49.80;;;;;;5075853;28;20100;-77
2021/05/23 07:06:27;;;;;;;6.03;1.65;;;20.20;50.20;;;;;;5075405;28;19927;-78
2021/05/23 07:08:53;;;;;;;;;;;20.50;48.50;;;;;;5075634;28;20059;-75
2021/05/23 07:11:19;;;;;;;9.95;1.90;;;20.50;48.60;;;;;;5058596;28;20292;-78
2021/05/23 07:13:45;;;;;;;;;;;20.70;48.20;;;;;;5076794;28;20032;-76
2021/05/23 07:16:12;;;;;;;5.10;1.92;;;20.90;48.90;;;;;;5075073;28;19994;-75
2021/05/23 07:18:38;;;;;;;6.35;2.38;;;21.00;47.20;;;;;;5075120;28;20075;-74
2021/05/23 07:21:05;;;;;;;6.13;1.88;;;20.90;48.30;;;;;;5074942;28;20396;-74
2021/05/23 07:23:31;;;;;;;5.60;2.17;;;20.80;47.40;;;;;;5074798;28;20028;-77
2021/05/23 07:25:58;;;;;;;7.95;1.73;;;20.90;45.90;;;;;;5075858;28;20064;-74
2021/05/23 07:28:25;;;;;;;5.60;1.88;;;20.80;46.60;;;;;;5074896;28;20025;-78
2021/05/23 07:30:51;;;;;;;3.97;1.67;;;20.90;46.70;;;;;;5075826;28;20040;-78
2021/05/23 07:33:18;;;;;;;5.20;2.15;;;20.90;46.40;;;;;;5091514;28;20029;-79
2021/05/23 07:35:45;;;;;;;9.32;3.05;;;20.90;46.90;;;;;;5074550;28;20043;-79
2021/05/23 07:38:12;;;;;;;5.25;1.73;;;20.90;47.20;;;;;;5091453;28;20021;-78
2021/05/23 07:40:38;;;;;;;5.35;1.98;;;20.90;46.70;;;;;;5074668;28;20037;-75
2021/05/23 07:43:04;;;;;;;4.82;1.48;;;21.10;46.70;;;;;;5074539;28;20024;-76
2021/05/23 07:45:32;;;;;;;4.95;1.80;;;21.10;46.40;;;;;;5074271;28;20036;-78
2021/05/23 07:47:58;;;;;;;4.85;1.80;;;21.20;46.80;;;;;;5091476;28;20031;-76
2021/05/23 07:50:25;;;;;;;6.38;2.17;;;21.30;46.00;;;;;;5091174;28;20040;-76
2021/05/23 07:52:51;;;;;;;9.32;2.10;;;21.40;47.00;;;;;;5091161;28;20500;-79
2021/05/23 07:55:18;;;;;;;4.90;2.17;;;21.50;47.50;;;;;;5074175;28;20119;-76
2021/05/23 07:57:45;;;;;;;7.22;2.88;;;21.60;47.10;;;;;;5074137;28;20031;-78
2021/05/23 08:00:13;;;;;;;7.38;2.80;;;21.70;46.80;;;;;;5090896;28;20123;-76
2021/05/23 08:02:39;;;;;;;5.50;2.10;;;21.80;47.00;;;;;;5074423;28;20028;-79
2021/05/23 08:05:06;;;;;;;6.68;2.00;;;21.80;47.00;;;;;;5074043;28;20033;-79
2021/05/23 08:07:33;;;;;;;9.52;2.58;;;21.80;46.70;;;;;;5090937;28;20513;-79
2021/05/23 08:09:59;;;;;;;6.15;2.00;;;21.90;47.00;;;;;;5075144;28;20485;-76
2021/05/23 08:12:26;;;;;;;6.53;2.17;;;21.90;48.10;;;;;;5073952;28;20111;-75
2021/05/23 08:14:52;;;;;;;8.40;2.00;;;22.00;46.90;;;;;;5091233;28;20047;-75
2021/05/23 08:17:19;;;;;;;5.18;1.70;;;22.10;46.90;;;;;;5073834;28;20028;-80
2021/05/23 08:19:45;;;;;;;5.32;1.98;;;22.20;46.70;;;;;;5073847;28;20068;-73
2021/05/23 08:22:11;;;;;;;6.15;2.40;;;22.30;46.90;;;;;;5056382;28;20058;-75
2021/05/23 08:24:37;;;;;;;8.43;1.90;;;22.50;46.70;;;;;;5083482;28;20392;-79
2021/05/23 08:27:04;;;;;;;4.20;1.48;;;22.90;46.20;;;;;;5093759;28;20089;-79
2021/05/23 08:29:30;;;;;;;6.97;2.13;;;23.30;45.20;;;;;;5093789;28;20028;-74
2021/05/23 08:32:16;;;;;;;4.85;2.10;;;23.70;44.60;;;;;;5093708;28;20064;-77
2021/05/23 08:34:42;;;;;;;6.38;1.67;;;24.10;43.90;;;;;;5076891;28;20085;-80
2021/05/23 08:37:08;;;;;;;6.22;2.35;;;24.30;43.40;;;;;;5080916;28;20033;-80
2021/05/23 08:39:35;;;;;;;5.90;2.10;;;24.40;42.50;;;;;;5089024;28;20029;-82
2021/05/23 08:42:01;;;;;;;5.43;1.92;;;24.20;42.10;;;;;;5072686;28;20071;-76
2021/05/23 08:44:27;;;;;;;7.65;2.70;;;24.00;41.60;;;;;;5093674;28;20032;-76
2021/05/23 08:46:54;;;;;;;10.65;2.08;;;23.80;41.70;;;;;;5093480;28;20033;-74
2021/05/23 08:49:24;;;;;;;5.95;2.40;;;23.90;42.20;;;;;;5094824;28;20027;-81
2021/05/23 08:51:52;;;;;;;8.40;2.58;;;24.40;41.80;;;;;;5093638;28;20031;-80
2021/05/23 08:54:19;;;;;;;12.00;2.03;;;25.00;40.90;;;;;;5093432;28;20024;-74
2021/05/23 08:56:49;;;;;;;10.00;2.20;;;25.00;40.00;;;;;;5093632;28;20062;-75
2021/05/23 08:59:16;;;;;;;5.30;1.98;;;24.70;40.90;;;;;;5093556;28;20028;-81
2021/05/23 09:01:43;;;;;;;12.43;2.60;;;24.40;40.30;;;;;;5093216;28;20091;-75
2021/05/23 09:04:19;;;;;;;8.82;2.53;;;24.30;41.00;;;;;;5093329;28;20046;-76
2021/05/23 09:06:46;;;;;;;;;;;24.40;42.10;;;;;;5076576;28;20546;-75
2021/05/23 09:10:01;;;;;;;9.80;2.70;;;24.60;40.70;;;;;;5093263;28;19912;-74
2021/05/23 09:12:27;;;;;;;8.85;2.65;;;24.50;40.40;;;;;;5093198;28;20070;-74
2021/05/23 09:14:54;;;;;;;8.02;2.75;;;24.40;41.70;;;;;;5092858;28;20039;-74
2021/05/23 09:17:28;;;;;;;6.53;2.63;;;24.50;41.70;;;;;;5094327;28;20085;-80
2021/05/23 09:19:56;;;;;;;11.88;2.50;;;24.50;40.10;;;;;;5092770;28;20127;-82
2021/05/23 09:22:26;;;;;;;7.93;2.20;;;24.40;40.60;;;;;;5092948;28;20144;-80
2021/05/23 09:25:13;;;;;;;11.02;3.55;;;24.10;40.70;;;;;;5092695;28;20061;-80
2021/05/23 09:27:44;;;;;;;3.83;1.70;;;24.40;41.80;;;;;;5094011;28;20028;-79
2021/05/23 09:32:59;;;;;;;7.50;2.17;;;24.60;39.60;;;;;;5093748;28;20032;-80
2021/05/23 09:35:27;;;;;;;9.95;2.50;;;25.70;38.60;;;;;;5075712;28;20036;-79
2021/05/23 09:38:31;;;;;;;5.13;1.80;;;26.40;37.30;;;;;;5092367;28;20067;-77
2021/05/23 09:40:57;;;;;;;6.10;2.30;;;27.60;35.90;;;;;;5092416;28;20044;-78
2021/05/23 09:43:24;;;;;;;9.00;1.95;;;28.60;34.10;;;;;;5092119;28;20024;-77
2021/05/23 09:45:53;;;;;;;7.07;1.92;;;29.60;32.40;;;;;;5093736;28;20400;-77
2021/05/23 09:48:38;;;;;;;13.63;2.63;;;29.60;31.10;;;;;;5092319;28;20039;-77
2021/05/23 09:51:23;;;;;;;7.20;2.40;;;29.80;32.00;;;;;;5092317;28;20040;-77
2021/05/23 09:53:59;;;;;;;6.65;2.25;;;30.70;30.30;;;;;;5092194;28;20028;-74
2021/05/23 09:56:31;;;;;;;7.97;1.92;;;31.10;29.70;;;;;;5092605;28;20544;-76
2021/05/23 09:58:58;;;;;;;8.57;2.50;;;31.60;29.30;;;;;;5092195;28;20032;-74
2021/05/23 10:01:44;;;;;;;5.25;1.85;;;32.40;28.30;;;;;;5074947;28;20534;-76
2021/05/23 10:04:29;;;;;;;6.95;2.47;;;33.30;27.70;;;;;;5092063;28;20387;-77
2021/05/23 10:07:14;;;;;;;8.40;1.95;;;33.30;26.90;;;;;;5075032;28;20044;-73
2021/05/23 10:09:41;;;;;;;7.25;2.70;;;33.20;26.90;;;;;;5093150;28;20074;-77
2021/05/23 10:12:11;;;;;;;7.60;2.35;;;33.80;25.40;;;;;;5091853;28;20035;-76
2021/05/23 10:14:39;;;;;;;6.05;1.73;;;34.20;25.40;;;;;;5075692;28;20066;-76
2021/05/23 10:17:07;;;;;;;5.97;2.22;;;33.80;24.90;;;;;;5091278;28;20448;-76
2021/05/23 10:19:35;;;;;;;8.50;2.72;;;33.40;25.40;;;;;;5091686;28;20361;-76
2021/05/23 10:22:05;;;;;;;9.82;2.50;;;33.10;25.60;;;;;;5091771;28;20506;-77
2021/05/23 10:25:09;;;;;;;11.70;2.53;;;32.70;25.90;;;;;;5091818;28;20036;-76
2021/05/23 10:27:39;;;;;;;11.88;2.50;;;32.10;26.70;;;;;;5091661;28;20038;-76
2021/05/23 10:30:08;;;;;;;7.53;2.17;;;31.10;27.80;;;;;;5091638;28;20036;-75
2021/05/23 10:32:37;;;;;;;9.00;2.42;;;30.80;28.70;;;;;;5091648;28;20054;-76
2021/05/23 10:35:44;;;;;;;9.02;2.20;;;31.40;28.40;;;;;;5091576;28;20530;-76
2021/05/23 10:38:14;;;;;;;9.52;4.10;;;30.90;27.40;;;;;;5091660;28;20369;-76
2021/05/23 10:41:02;;;;;;;6.60;2.50;;;30.20;29.50;;;;;;5091522;28;20938;-76
2021/05/23 10:44:07;;;;;;;7.15;2.90;;;29.50;30.00;;;;;;5091592;28;20035;-76
2021/05/23 10:46:45;;;;;;;8.35;2.28;;;29.30;30.20;;;;;;5091667;28;20039;-76
2021/05/23 10:49:12;;;;;;;10.38;2.65;;;29.00;30.40;;;;;;5092986;28;20384;-77
2021/05/23 10:51:38;;;;;;;5.75;1.67;;;28.30;31.50;;;;;;5093210;28;20039;-76
2021/05/23 10:54:24;;;;;;;5.30;1.65;;;27.80;31.20;;;;;;5091445;28;20032;-77
2021/05/23 10:57:09;;;;;;;4.70;1.65;;;27.20;31.10;;;;;;5091434;28;20507;-78
2021/05/23 10:59:37;;;;;;;7.72;1.58;;;26.80;31.80;;;;;;5092659;28;20051;-76
2021/05/23 11:02:03;;;;;;;4.72;1.50;;;27.90;29.70;;;;;;5092594;28;20044;-76
2021/05/23 11:04:49;;;;;;;5.93;1.52;;;27.60;31.40;;;;;;5091194;28;20032;-77
2021/05/23 11:07:16;;;;;;;8.10;1.88;;;27.10;31.60;;;;;;5091390;28;20542;-78
2021/05/23 11:09:43;;;;;;;4.32;1.88;;;26.90;32.20;;;;;;5091233;28;20127;-77
2021/05/23 11:12:13;;;;;;;7.78;1.65;;;26.60;33.20;;;;;;5074464;28;20036;-76
2021/05/23 11:14:39;;;;;;;6.05;1.60;;;26.50;33.40;;;;;;5092496;28;20030;-76
2021/05/23 11:17:09;;;;;;;9.32;2.05;;;26.70;33.00;;;;;;5091137;28;20392;-76
2021/05/23 11:19:37;;;;;;;5.85;1.77;;;27.30;32.10;;;;;;5092472;28;20475;-76
2021/05/23 11:22:03;;;;;;;7.68;3.00;;;27.20;31.90;;;;;;5092466;28;20080;-76
2021/05/23 11:24:32;;;;;;;8.85;2.55;;;26.90;32.50;;;;;;5091177;28;20136;-77
2021/05/23 11:27:18;;;;;;;5.93;2.28;;;26.80;33.60;;;;;;5091124;28;20028;-76
2021/05/23 11:30:22;;;;;;;7.53;2.10;;;27.10;33.10;;;;;;5094587;28;20089;-76
2021/05/23 11:33:10;;;;;;;8.32;2.30;;;26.80;33.20;;;;;;5094941;28;20036;-76
2021/05/23 11:35:39;;;;;;;5.15;1.77;;;27.40;32.40;;;;;;5095076;28;20048;-76
2021/05/23 11:38:06;;;;;;;12.18;2.47;;;27.10;32.40;;;;;;5094746;28;20032;-76
2021/05/23 11:40:40;;;;;;;5.95;1.77;;;26.70;33.20;;;;;;5094644;28;20062;-75
2021/05/23 11:43:25;;;;;;;7.60;3.00;;;26.90;33.50;;;;;;5094854;28;20028;-76
2021/05/23 11:46:09;;;;;;;9.02;2.08;;;27.10;33.90;;;;;;5094775;28;20089;-76
2021/05/23 11:48:57;;;;;;;8.38;1.85;;;29.50;30.70;;;;;;5077705;28;20059;-76
2021/05/23 11:51:44;;;;;;;6.38;1.75;;;29.60;28.80;;;;;;5094700;28;20066;-76
2021/05/23 11:54:11;;;;;;;9.88;1.90;;;28.70;29.80;;;;;;5077903;28;20077;-77
2021/05/23 11:56:40;;;;;;;4.60;1.27;;;28.20;30.10;;;;;;5089657;28;20039;-79
2021/05/23 11:59:09;;;;;;;8.07;1.95;;;28.30;29.90;;;;;;5070100;28;20021;-77
2021/05/23 12:01:39;;;;;;;9.45;2.13;;;28.50;30.00;;;;;;5066438;28;20044;-77
2021/05/23 12:04:24;;;;;;;6.55;2.33;;;28.00;31.20;;;;;;5089750;28;20051;-76
2021/05/23 12:06:54;;;;;;;6.25;2.10;;;27.70;32.50;;;;;;5043278;28;20404;-76
2021/05/23 12:09:39;;;;;;;9.68;1.67;;;28.20;31.60;;;;;;5065001;28;20405;-76
2021/05/23 12:12:08;;;;;;;10.55;2.20;;;28.20;30.50;;;;;;5084190;28;20032;-77
2021/05/23 12:14:37;;;;;;;6.50;1.92;;;27.80;30.80;;;;;;5073844;28;20046;-75
2021/05/23 12:17:24;;;;;;;5.65;1.73;;;28.00;31.60;;;;;;5073753;28;20485;-76
2021/05/23 12:20:11;;;;;;;6.13;2.05;;;27.90;31.50;;;;;;5073827;28;20032;-76
2021/05/23 12:22:38;;;;;;;10.40;1.80;;;27.90;31.80;;;;;;5076989;28;20029;-77
2021/05/23 12:25:05;;;;;;;9.02;1.92;;;27.90;31.70;;;;;;5073656;28;20032;-76
2021/05/23 12:27:52;;;;;;;8.38;1.75;;;27.70;32.30;;;;;;5074383;28;20043;-77
2021/05/23 12:30:38;;;;;;;6.13;2.03;;;27.30;31.90;;;;;;5073482;28;20029;-76
2021/05/23 12:33:07;;;;;;;7.55;1.85;;;27.00;33.40;;;;;;5074837;28;20056;-78
2021/05/23 12:35:39;;;;;;;5.38;1.73;;;26.60;33.20;;;;;;5090374;28;20093;-79
2021/05/23 12:38:08;;;;;;;6.00;1.80;;;26.50;32.90;;;;;;5090247;28;20040;-77
2021/05/23 12:40:43;;;;;;;7.25;1.85;;;26.50;33.20;;;;;;5072701;28;20108;-77
2021/05/23 12:43:15;;;;;;;5.50;1.73;;;26.30;33.60;;;;;;5074376;28;20032;-77
2021/05/23 12:45:45;;;;;;;9.88;2.33;;;26.20;34.60;;;;;;5073279;28;20051;-76
2021/05/23 12:48:13;;;;;;;6.88;2.03;;;26.10;34.60;;;;;;5073422;28;20039;-76
2021/05/23 12:50:44;;;;;;;9.35;2.33;;;25.90;35.30;;;;;;5073271;28;20075;-76
2021/05/23 12:53:11;;;;;;;6.80;1.80;;;25.70;35.50;;;;;;5073240;28;20028;-76
2021/05/23 12:56:09;;;;;;;12.07;2.85;;;25.60;35.30;;;;;;5073189;28;20493;-77
2021/05/23 12:59:13;;;;;;;6.88;1.73;;;25.60;35.90;;;;;;5074346;28;20503;-77
2021/05/23 13:01:43;;;;;;;8.73;1.88;;;25.30;35.60;;;;;;5074284;28;20102;-78
2021/05/23 13:04:30;;;;;;;4.63;1.42;;;25.00;36.10;;;;;;5076518;28;20040;-77
2021/05/23 13:07:00;;;;;;;5.38;1.77;;;24.70;37.10;;;;;;5072825;28;20045;-76
2021/05/23 13:09:47;;;;;;;7.53;2.00;;;24.70;38.10;;;;;;5091443;28;20067;-76
2021/05/23 13:12:34;;;;;;;10.55;2.28;;;24.60;38.20;;;;;;5092918;28;20118;-75
2021/05/23 13:15:02;;;;;;;;;;;24.80;37.90;;;;;;5093357;28;20127;-76
2021/05/23 13:17:48;;;;;;;5.22;1.50;;;25.10;37.00;;;;;;5094273;28;20428;-77